sensor_id;sensor_type;location;lat;lon;timestamp;P1;durP1;ratioP1;P2;durP2;ratioP2
42770;SDS011;28426;42.872;25.314;2022-10-20T00:00:49;29.30;;;19.98;;
42770;SDS011;28426;42.872;25.314;2022-10-20T00:03:20;24.77;;;18.05;;
42770;SDS011;28426;42.872;25.314;2022-10-20T00:05:51;27.17;;;20.30;;
42770;SDS011;28426;42.872;25.314;2022-10-20T00:08:22;33.00;;;19.77;;
42770;SDS011;28426;42.872;25.314;2022-10-20T00:10:56;23.80;;;18.02;;
42770;SDS011;28426;42.872;25.314;2022-10-20T00:13:27;25.38;;;17.83;;
42770;SDS011;28426;42.872;25.314;2022-10-20T00:15:58;27.25;;;17.98;;
42770;SDS011;28426;42.872;25.314;2022-10-20T00:18:29;24.63;;;17.65;;
42770;SDS011;28426;42.872;25.314;2022-10-20T00:21:03;23.25;;;17.80;;
42770;SDS011;28426;42.872;25.314;2022-10-20T00:23:35;30.42;;;18.60;;
42770;SDS011;28426;42.872;25.314;2022-10-20T00:26:10;27.63;;;16.25;;
42770;SDS011;28426;42.872;25.314;2022-10-20T00:28:41;34.30;;;18.30;;
42770;SDS011;28426;42.872;25.314;2022-10-20T00:31:13;25.83;;;18.40;;
42770;SDS011;28426;42.872;25.314;2022-10-20T00:33:44;28.02;;;17.13;;
42770;SDS011;28426;42.872;25.314;2022-10-20T00:36:15;28.40;;;19.05;;
42770;SDS011;28426;42.872;25.314;2022-10-20T00:38:47;28.17;;;18.42;;
42770;SDS011;28426;42.872;25.314;2022-10-20T00:41:21;23.60;;;17.02;;
42770;SDS011;28426;42.872;25.314;2022-10-20T00:43:52;29.38;;;19.15;;
42770;SDS011;28426;42.872;25.314;2022-10-20T00:46:24;25.92;;;18.88;;
42770;SDS011;28426;42.872;25.314;2022-10-20T00:48:59;25.23;;;17.00;;
42770;SDS011;28426;42.872;25.314;2022-10-20T00:51:35;35.13;;;20.48;;
42770;SDS011;28426;42.872;25.314;2022-10-20T00:54:08;24.45;;;18.58;;
42770;SDS011;28426;42.872;25.314;2022-10-20T00:56:45;23.75;;;17.67;;
42770;SDS011;28426;42.872;25.314;2022-10-20T00:59:19;30.55;;;20.85;;
42770;SDS011;28426;42.872;25.314;2022-10-20T01:01:52;27.27;;;19.35;;
42770;SDS011;28426;42.872;25.314;2022-10-20T01:04:24;26.63;;;16.90;;
42770;SDS011;28426;42.872;25.314;2022-10-20T01:06:56;27.90;;;19.13;;
42770;SDS011;28426;42.872;25.314;2022-10-20T01:09:28;23.38;;;18.10;;
42770;SDS011;28426;42.872;25.314;2022-10-20T01:12:03;24.15;;;17.13;;
42770;SDS011;28426;42.872;25.314;2022-10-20T01:14:42;25.17;;;17.40;;
42770;SDS011;28426;42.872;25.314;2022-10-20T01:17:24;29.50;;;17.50;;
42770;SDS011;28426;42.872;25.314;2022-10-20T01:20:11;24.45;;;17.75;;
42770;SDS011;28426;42.872;25.314;2022-10-20T01:23:03;25.98;;;19.00;;
42770;SDS011;28426;42.872;25.314;2022-10-20T01:25:49;29.08;;;18.52;;
42770;SDS011;28426;42.872;25.314;2022-10-20T01:28:39;22.42;;;17.90;;
42770;SDS011;28426;42.872;25.314;2022-10-20T01:31:14;30.30;;;20.98;;
42770;SDS011;28426;42.872;25.314;2022-10-20T01:33:52;27.38;;;19.35;;
42770;SDS011;28426;42.872;25.314;2022-10-20T01:36:28;27.77;;;16.90;;
42770;SDS011;28426;42.872;25.314;2022-10-20T01:39:06;27.73;;;20.35;;
42770;SDS011;28426;42.872;25.314;2022-10-20T01:41:42;24.55;;;18.95;;
42770;SDS011;28426;42.872;25.314;2022-10-20T01:44:20;28.35;;;18.40;;
42770;SDS011;28426;42.872;25.314;2022-10-20T01:46:54;26.02;;;18.95;;
42770;SDS011;28426;42.872;25.314;2022-10-20T01:49:25;24.00;;;18.08;;
42770;SDS011;28426;42.872;25.314;2022-10-20T01:51:56;23.17;;;17.33;;
42770;SDS011;28426;42.872;25.314;2022-10-20T01:54:27;27.83;;;19.30;;
42770;SDS011;28426;42.872;25.314;2022-10-20T01:57:07;28.42;;;18.17;;
42770;SDS011;28426;42.872;25.314;2022-10-20T01:59:50;28.58;;;20.95;;
42770;SDS011;28426;42.872;25.314;2022-10-20T02:02:33;27.05;;;20.45;;
42770;SDS011;28426;42.872;25.314;2022-10-20T02:05:25;23.88;;;18.05;;
42770;SDS011;28426;42.872;25.314;2022-10-20T02:08:10;28.25;;;22.20;;
42770;SDS011;28426;42.872;25.314;2022-10-20T02:10:44;28.85;;;21.23;;
42770;SDS011;28426;42.872;25.314;2022-10-20T02:13:17;25.95;;;18.98;;
42770;SDS011;28426;42.872;25.314;2022-10-20T02:15:53;28.45;;;21.55;;
42770;SDS011;28426;42.872;25.314;2022-10-20T02:18:27;26.45;;;21.20;;
42770;SDS011;28426;42.872;25.314;2022-10-20T02:21:01;27.27;;;19.30;;
42770;SDS011;28426;42.872;25.314;2022-10-20T02:23:34;30.83;;;23.20;;
42770;SDS011;28426;42.872;25.314;2022-10-20T02:26:08;26.42;;;20.27;;
42770;SDS011;28426;42.872;25.314;2022-10-20T02:28:43;29.35;;;20.33;;
42770;SDS011;28426;42.872;25.314;2022-10-20T02:31:19;34.92;;;23.58;;
42770;SDS011;28426;42.872;25.314;2022-10-20T02:33:51;30.92;;;22.58;;
42770;SDS011;28426;42.872;25.314;2022-10-20T02:36:24;31.50;;;21.33;;
42770;SDS011;28426;42.872;25.314;2022-10-20T02:38:56;30.10;;;21.30;;
42770;SDS011;28426;42.872;25.314;2022-10-20T02:41:27;29.48;;;19.67;;
42770;SDS011;28426;42.872;25.314;2022-10-20T02:43:58;30.25;;;21.20;;
42770;SDS011;28426;42.872;25.314;2022-10-20T02:46:31;28.30;;;20.65;;
42770;SDS011;28426;42.872;25.314;2022-10-20T02:49:01;33.45;;;21.23;;
42770;SDS011;28426;42.872;25.314;2022-10-20T02:51:32;30.23;;;21.50;;
42770;SDS011;28426;42.872;25.314;2022-10-20T02:54:02;30.58;;;20.48;;
42770;SDS011;28426;42.872;25.314;2022-10-20T02:56:33;26.92;;;20.75;;
42770;SDS011;28426;42.872;25.314;2022-10-20T02:59:04;30.35;;;20.65;;
42770;SDS011;28426;42.872;25.314;2022-10-20T03:01:37;28.88;;;20.65;;
42770;SDS011;28426;42.872;25.314;2022-10-20T03:04:07;26.70;;;20.58;;
42770;SDS011;28426;42.872;25.314;2022-10-20T03:06:38;26.85;;;20.35;;
42770;SDS011;28426;42.872;25.314;2022-10-20T03:09:10;29.38;;;19.48;;
42770;SDS011;28426;42.872;25.314;2022-10-20T03:11:40;29.35;;;20.20;;
42770;SDS011;28426;42.872;25.314;2022-10-20T03:14:11;32.13;;;21.15;;
42770;SDS011;28426;42.872;25.314;2022-10-20T03:16:44;27.83;;;20.55;;
42770;SDS011;28426;42.872;25.314;2022-10-20T03:19:14;27.85;;;21.02;;
42770;SDS011;28426;42.872;25.314;2022-10-20T03:21:45;26.20;;;20.17;;
42770;SDS011;28426;42.872;25.314;2022-10-20T03:24:16;32.25;;;21.08;;
42770;SDS011;28426;42.872;25.314;2022-10-20T03:26:46;32.30;;;21.45;;
42770;SDS011;28426;42.872;25.314;2022-10-20T03:29:17;30.58;;;21.00;;
42770;SDS011;28426;42.872;25.314;2022-10-20T03:31:50;29.27;;;20.88;;
42770;SDS011;28426;42.872;25.314;2022-10-20T03:34:21;29.50;;;21.52;;
42770;SDS011;28426;42.872;25.314;2022-10-20T03:36:52;30.05;;;21.08;;
42770;SDS011;28426;42.872;25.314;2022-10-20T03:39:22;28.95;;;20.30;;
42770;SDS011;28426;42.872;25.314;2022-10-20T03:41:53;31.77;;;20.58;;
42770;SDS011;28426;42.872;25.314;2022-10-20T03:44:24;28.55;;;19.92;;
42770;SDS011;28426;42.872;25.314;2022-10-20T03:46:57;29.45;;;21.10;;
42770;SDS011;28426;42.872;25.314;2022-10-20T03:49:29;28.92;;;20.73;;
42770;SDS011;28426;42.872;25.314;2022-10-20T03:52:00;29.98;;;21.40;;
42770;SDS011;28426;42.872;25.314;2022-10-20T03:54:30;31.23;;;21.42;;
42770;SDS011;28426;42.872;25.314;2022-10-20T03:57:01;31.88;;;21.88;;
42770;SDS011;28426;42.872;25.314;2022-10-20T03:59:33;26.77;;;20.23;;
42770;SDS011;28426;42.872;25.314;2022-10-20T04:02:06;34.45;;;21.73;;
42770;SDS011;28426;42.872;25.314;2022-10-20T04:04:45;33.95;;;23.38;;
42770;SDS011;28426;42.872;25.314;2022-10-20T04:07:16;38.08;;;25.45;;
42770;SDS011;28426;42.872;25.314;2022-10-20T04:09:46;37.35;;;25.83;;
42770;SDS011;28426;42.872;25.314;2022-10-20T04:12:17;33.95;;;24.35;;
42770;SDS011;28426;42.872;25.314;2022-10-20T04:14:47;32.53;;;24.42;;
42770;SDS011;28426;42.872;25.314;2022-10-20T04:17:20;41.55;;;26.55;;
42770;SDS011;28426;42.872;25.314;2022-10-20T04:19:51;32.35;;;24.25;;
42770;SDS011;28426;42.872;25.314;2022-10-20T04:22:22;33.38;;;25.00;;
42770;SDS011;28426;42.872;25.314;2022-10-20T04:24:52;38.25;;;24.65;;
42770;SDS011;28426;42.872;25.314;2022-10-20T04:27:23;38.13;;;26.02;;
42770;SDS011;28426;42.872;25.314;2022-10-20T04:29:53;47.05;;;33.33;;
42770;SDS011;28426;42.872;25.314;2022-10-20T04:32:27;33.70;;;24.35;;
42770;SDS011;28426;42.872;25.314;2022-10-20T04:34:57;34.92;;;24.25;;
42770;SDS011;28426;42.872;25.314;2022-10-20T04:37:28;34.80;;;23.50;;
42770;SDS011;28426;42.872;25.314;2022-10-20T04:39:59;31.27;;;22.13;;
42770;SDS011;28426;42.872;25.314;2022-10-20T04:42:29;33.08;;;20.83;;
42770;SDS011;28426;42.872;25.314;2022-10-20T04:45:00;26.25;;;20.70;;
42770;SDS011;28426;42.872;25.314;2022-10-20T04:47:33;33.60;;;21.23;;
42770;SDS011;28426;42.872;25.314;2022-10-20T04:50:05;27.67;;;20.42;;
42770;SDS011;28426;42.872;25.314;2022-10-20T04:52:36;28.98;;;19.92;;
42770;SDS011;28426;42.872;25.314;2022-10-20T04:55:07;31.50;;;19.73;;
42770;SDS011;28426;42.872;25.314;2022-10-20T04:57:38;26.48;;;18.92;;
42770;SDS011;28426;42.872;25.314;2022-10-20T05:00:09;24.88;;;18.75;;
42770;SDS011;28426;42.872;25.314;2022-10-20T05:02:43;27.30;;;17.83;;
42770;SDS011;28426;42.872;25.314;2022-10-20T05:05:14;26.75;;;17.77;;
42770;SDS011;28426;42.872;25.314;2022-10-20T05:07:44;27.90;;;18.08;;
42770;SDS011;28426;42.872;25.314;2022-10-20T05:10:15;28.48;;;18.75;;
42770;SDS011;28426;42.872;25.314;2022-10-20T05:12:46;26.35;;;17.73;;
42770;SDS011;28426;42.872;25.314;2022-10-20T05:15:17;24.00;;;17.15;;
42770;SDS011;28426;42.872;25.314;2022-10-20T05:17:50;28.35;;;17.58;;
42770;SDS011;28426;42.872;25.314;2022-10-20T05:20:20;31.02;;;18.63;;
42770;SDS011;28426;42.872;25.314;2022-10-20T05:22:51;23.52;;;15.55;;
42770;SDS011;28426;42.872;25.314;2022-10-20T05:25:21;28.02;;;17.77;;
42770;SDS011;28426;42.872;25.314;2022-10-20T05:30:38;29.67;;;16.67;;
42770;SDS011;28426;42.872;25.314;2022-10-20T05:33:31;22.52;;;15.15;;
42770;SDS011;28426;42.872;25.314;2022-10-20T05:36:05;23.38;;;15.55;;
42770;SDS011;28426;42.872;25.314;2022-10-20T05:38:37;24.23;;;15.98;;
42770;SDS011;28426;42.872;25.314;2022-10-20T05:41:08;22.42;;;15.45;;
42770;SDS011;28426;42.872;25.314;2022-10-20T05:43:40;21.90;;;14.75;;
42770;SDS011;28426;42.872;25.314;2022-10-20T05:46:10;20.60;;;14.18;;
42770;SDS011;28426;42.872;25.314;2022-10-20T05:48:44;18.20;;;13.23;;
42770;SDS011;28426;42.872;25.314;2022-10-20T05:51:15;21.17;;;13.88;;
42770;SDS011;28426;42.872;25.314;2022-10-20T05:53:47;19.05;;;14.38;;
42770;SDS011;28426;42.872;25.314;2022-10-20T05:56:18;23.50;;;14.55;;
42770;SDS011;28426;42.872;25.314;2022-10-20T05:58:49;24.95;;;14.05;;
42770;SDS011;28426;42.872;25.314;2022-10-20T06:01:21;20.73;;;14.63;;
42770;SDS011;28426;42.872;25.314;2022-10-20T06:03:56;22.98;;;15.85;;
42770;SDS011;28426;42.872;25.314;2022-10-20T06:06:28;19.53;;;13.50;;
42770;SDS011;28426;42.872;25.314;2022-10-20T06:09:03;23.05;;;16.02;;
42770;SDS011;28426;42.872;25.314;2022-10-20T06:11:35;32.42;;;15.18;;
42770;SDS011;28426;42.872;25.314;2022-10-20T06:14:07;23.52;;;14.40;;
42770;SDS011;28426;42.872;25.314;2022-10-20T06:16:38;27.35;;;14.40;;
42770;SDS011;28426;42.872;25.314;2022-10-20T06:19:11;19.83;;;14.32;;
42770;SDS011;28426;42.872;25.314;2022-10-20T06:21:42;22.77;;;13.80;;
42770;SDS011;28426;42.872;25.314;2022-10-20T06:24:15;19.73;;;13.23;;
42770;SDS011;28426;42.872;25.314;2022-10-20T06:26:46;22.25;;;12.63;;
42770;SDS011;28426;42.872;25.314;2022-10-20T06:29:17;16.45;;;11.18;;
42770;SDS011;28426;42.872;25.314;2022-10-20T06:31:49;15.02;;;11.10;;
42770;SDS011;28426;42.872;25.314;2022-10-20T06:34:23;17.33;;;11.48;;
42770;SDS011;28426;42.872;25.314;2022-10-20T06:36:54;22.63;;;11.13;;
42770;SDS011;28426;42.872;25.314;2022-10-20T06:39:25;15.50;;;10.30;;
42770;SDS011;28426;42.872;25.314;2022-10-20T06:41:55;14.98;;;10.70;;
42770;SDS011;28426;42.872;25.314;2022-10-20T06:44:30;16.58;;;9.80;;
42770;SDS011;28426;42.872;25.314;2022-10-20T06:47:00;13.02;;;9.20;;
42770;SDS011;28426;42.872;25.314;2022-10-20T06:49:36;13.10;;;9.27;;
42770;SDS011;28426;42.872;25.314;2022-10-20T06:52:06;28.63;;;9.90;;
42770;SDS011;28426;42.872;25.314;2022-10-20T06:54:37;18.85;;;8.90;;
42770;SDS011;28426;42.872;25.314;2022-10-20T06:57:08;13.70;;;9.13;;
42770;SDS011;28426;42.872;25.314;2022-10-20T06:59:39;14.32;;;8.93;;
42770;SDS011;28426;42.872;25.314;2022-10-20T07:02:10;12.38;;;8.65;;
42770;SDS011;28426;42.872;25.314;2022-10-20T07:04:43;14.00;;;8.70;;
42770;SDS011;28426;42.872;25.314;2022-10-20T07:07:14;16.95;;;8.38;;
42770;SDS011;28426;42.872;25.314;2022-10-20T07:09:44;14.60;;;9.18;;
42770;SDS011;28426;42.872;25.314;2022-10-20T07:12:15;14.05;;;7.80;;
42770;SDS011;28426;42.872;25.314;2022-10-20T07:14:46;12.93;;;7.35;;
42770;SDS011;28426;42.872;25.314;2022-10-20T07:17:17;16.45;;;8.10;;
42770;SDS011;28426;42.872;25.314;2022-10-20T07:19:50;13.45;;;8.27;;
42770;SDS011;28426;42.872;25.314;2022-10-20T07:22:21;13.15;;;8.13;;
42770;SDS011;28426;42.872;25.314;2022-10-20T07:24:51;14.13;;;8.20;;
42770;SDS011;28426;42.872;25.314;2022-10-20T07:27:22;19.70;;;8.65;;
42770;SDS011;28426;42.872;25.314;2022-10-20T07:29:53;11.15;;;7.43;;
42770;SDS011;28426;42.872;25.314;2022-10-20T07:32:23;19.05;;;8.63;;
42770;SDS011;28426;42.872;25.314;2022-10-20T07:34:57;10.88;;;7.28;;
42770;SDS011;28426;42.872;25.314;2022-10-20T07:37:28;14.43;;;7.60;;
42770;SDS011;28426;42.872;25.314;2022-10-20T07:39:59;14.77;;;7.95;;
42770;SDS011;28426;42.872;25.314;2022-10-20T07:42:30;11.93;;;7.13;;
42770;SDS011;28426;42.872;25.314;2022-10-20T07:45:01;12.75;;;7.55;;
42770;SDS011;28426;42.872;25.314;2022-10-20T07:47:32;14.00;;;7.60;;
42770;SDS011;28426;42.872;25.314;2022-10-20T07:50:08;18.42;;;8.20;;
42770;SDS011;28426;42.872;25.314;2022-10-20T07:52:39;10.20;;;7.03;;
42770;SDS011;28426;42.872;25.314;2022-10-20T07:55:10;13.40;;;8.00;;
42770;SDS011;28426;42.872;25.314;2022-10-20T07:58:01;10.63;;;6.95;;
42770;SDS011;28426;42.872;25.314;2022-10-20T08:00:31;15.02;;;8.20;;
42770;SDS011;28426;42.872;25.314;2022-10-20T08:03:02;18.05;;;8.10;;
42770;SDS011;28426;42.872;25.314;2022-10-20T08:05:35;19.48;;;8.23;;
42770;SDS011;28426;42.872;25.314;2022-10-20T08:08:06;13.98;;;8.63;;
42770;SDS011;28426;42.872;25.314;2022-10-20T08:10:37;15.15;;;8.20;;
42770;SDS011;28426;42.872;25.314;2022-10-20T08:13:08;11.00;;;7.13;;
42770;SDS011;28426;42.872;25.314;2022-10-20T08:15:38;11.70;;;7.38;;
42770;SDS011;28426;42.872;25.314;2022-10-20T08:18:22;14.82;;;6.85;;
42770;SDS011;28426;42.872;25.314;2022-10-20T08:21:04;12.85;;;7.38;;
42770;SDS011;28426;42.872;25.314;2022-10-20T08:23:36;15.15;;;7.25;;
42770;SDS011;28426;42.872;25.314;2022-10-20T08:26:08;11.57;;;7.70;;
42770;SDS011;28426;42.872;25.314;2022-10-20T08:28:38;11.15;;;8.18;;
42770;SDS011;28426;42.872;25.314;2022-10-20T08:31:09;20.15;;;7.25;;
42770;SDS011;28426;42.872;25.314;2022-10-20T08:33:40;15.15;;;7.60;;
42770;SDS011;28426;42.872;25.314;2022-10-20T08:36:18;12.45;;;7.32;;
42770;SDS011;28426;42.872;25.314;2022-10-20T08:38:49;13.70;;;7.68;;
42770;SDS011;28426;42.872;25.314;2022-10-20T08:41:21;12.25;;;7.97;;
42770;SDS011;28426;42.872;25.314;2022-10-20T08:44:01;17.02;;;7.57;;
42770;SDS011;28426;42.872;25.314;2022-10-20T08:46:35;12.45;;;7.97;;
42770;SDS011;28426;42.872;25.314;2022-10-20T08:49:11;11.85;;;7.78;;
42770;SDS011;28426;42.872;25.314;2022-10-20T08:51:49;22.60;;;8.48;;
42770;SDS011;28426;42.872;25.314;2022-10-20T08:54:20;13.50;;;7.57;;
42770;SDS011;28426;42.872;25.314;2022-10-20T08:56:51;18.13;;;7.88;;
42770;SDS011;28426;42.872;25.314;2022-10-20T08:59:24;18.60;;;8.80;;
42770;SDS011;28426;42.872;25.314;2022-10-20T09:01:56;12.17;;;7.43;;
42770;SDS011;28426;42.872;25.314;2022-10-20T09:04:30;13.50;;;7.68;;
42770;SDS011;28426;42.872;25.314;2022-10-20T09:07:08;24.63;;;8.38;;
42770;SDS011;28426;42.872;25.314;2022-10-20T09:09:47;12.15;;;7.30;;
42770;SDS011;28426;42.872;25.314;2022-10-20T09:12:18;13.88;;;7.03;;
42770;SDS011;28426;42.872;25.314;2022-10-20T09:14:57;24.98;;;7.40;;
42770;SDS011;28426;42.872;25.314;2022-10-20T09:17:28;14.05;;;6.95;;
42770;SDS011;28426;42.872;25.314;2022-10-20T09:19:59;16.38;;;7.22;;
42770;SDS011;28426;42.872;25.314;2022-10-20T09:22:33;13.68;;;7.72;;
42770;SDS011;28426;42.872;25.314;2022-10-20T09:25:05;13.35;;;7.32;;
42770;SDS011;28426;42.872;25.314;2022-10-20T09:27:42;10.40;;;6.70;;
42770;SDS011;28426;42.872;25.314;2022-10-20T09:30:14;15.25;;;6.28;;
42770;SDS011;28426;42.872;25.314;2022-10-20T09:32:46;11.50;;;6.80;;
42770;SDS011;28426;42.872;25.314;2022-10-20T09:35:19;11.25;;;6.68;;
42770;SDS011;28426;42.872;25.314;2022-10-20T09:37:56;13.30;;;7.15;;
42770;SDS011;28426;42.872;25.314;2022-10-20T09:40:30;12.30;;;6.35;;
42770;SDS011;28426;42.872;25.314;2022-10-20T09:43:01;12.50;;;6.57;;
42770;SDS011;28426;42.872;25.314;2022-10-20T09:45:46;10.65;;;6.85;;
42770;SDS011;28426;42.872;25.314;2022-10-20T09:48:23;13.10;;;6.60;;
42770;SDS011;28426;42.872;25.314;2022-10-20T09:50:56;11.43;;;6.07;;
42770;SDS011;28426;42.872;25.314;2022-10-20T09:53:31;10.95;;;6.55;;
42770;SDS011;28426;42.872;25.314;2022-10-20T09:56:07;12.48;;;6.50;;
42770;SDS011;28426;42.872;25.314;2022-10-20T09:58:38;10.43;;;6.57;;
42770;SDS011;28426;42.872;25.314;2022-10-20T10:01:11;11.85;;;6.20;;
42770;SDS011;28426;42.872;25.314;2022-10-20T10:06:19;11.88;;;6.20;;
42770;SDS011;28426;42.872;25.314;2022-10-20T10:09:22;12.00;;;6.75;;
42770;SDS011;28426;42.872;25.314;2022-10-20T10:11:57;16.95;;;7.05;;
42770;SDS011;28426;42.872;25.314;2022-10-20T10:14:31;11.57;;;5.95;;
42770;SDS011;28426;42.872;25.314;2022-10-20T10:17:04;8.75;;;5.93;;
42770;SDS011;28426;42.872;25.314;2022-10-20T10:19:34;13.27;;;6.10;;
42770;SDS011;28426;42.872;25.314;2022-10-20T10:22:06;16.92;;;6.75;;
42770;SDS011;28426;42.872;25.314;2022-10-20T10:24:44;11.10;;;6.30;;
42770;SDS011;28426;42.872;25.314;2022-10-20T10:27:18;12.38;;;5.90;;
42770;SDS011;28426;42.872;25.314;2022-10-20T10:29:51;11.82;;;6.22;;
42770;SDS011;28426;42.872;25.314;2022-10-20T10:32:23;7.55;;;5.55;;
42770;SDS011;28426;42.872;25.314;2022-10-20T10:34:58;14.07;;;6.10;;
42770;SDS011;28426;42.872;25.314;2022-10-20T10:37:33;12.88;;;5.78;;
42770;SDS011;28426;42.872;25.314;2022-10-20T10:40:13;11.40;;;6.38;;
42770;SDS011;28426;42.872;25.314;2022-10-20T10:42:51;9.60;;;5.72;;
42770;SDS011;28426;42.872;25.314;2022-10-20T10:45:38;12.88;;;6.40;;
42770;SDS011;28426;42.872;25.314;2022-10-20T10:48:19;8.73;;;5.80;;
42770;SDS011;28426;42.872;25.314;2022-10-20T10:51:09;12.05;;;6.07;;
42770;SDS011;28426;42.872;25.314;2022-10-20T10:53:48;9.77;;;5.93;;
42770;SDS011;28426;42.872;25.314;2022-10-20T10:56:32;11.82;;;5.82;;
42770;SDS011;28426;42.872;25.314;2022-10-20T10:59:11;13.05;;;6.25;;
42770;SDS011;28426;42.872;25.314;2022-10-20T11:01:54;9.25;;;5.32;;
42770;SDS011;28426;42.872;25.314;2022-10-20T11:04:55;18.10;;;6.88;;
42770;SDS011;28426;42.872;25.314;2022-10-20T11:07:55;10.27;;;6.35;;
42770;SDS011;28426;42.872;25.314;2022-10-20T11:10:36;10.20;;;5.85;;
42770;SDS011;28426;42.872;25.314;2022-10-20T11:13:21;10.40;;;6.20;;
42770;SDS011;28426;42.872;25.314;2022-10-20T11:16:03;16.02;;;6.05;;
42770;SDS011;28426;42.872;25.314;2022-10-20T11:18:57;10.35;;;5.78;;
42770;SDS011;28426;42.872;25.314;2022-10-20T11:21:41;10.43;;;6.03;;
42770;SDS011;28426;42.872;25.314;2022-10-20T11:24:23;10.25;;;5.88;;
42770;SDS011;28426;42.872;25.314;2022-10-20T11:27:11;12.88;;;6.70;;
42770;SDS011;28426;42.872;25.314;2022-10-20T11:29:48;10.18;;;6.55;;
42770;SDS011;28426;42.872;25.314;2022-10-20T11:32:24;9.90;;;6.35;;
42770;SDS011;28426;42.872;25.314;2022-10-20T11:35:01;17.67;;;6.60;;
42770;SDS011;28426;42.872;25.314;2022-10-20T11:37:37;8.45;;;5.40;;
42770;SDS011;28426;42.872;25.314;2022-10-20T11:40:13;19.67;;;6.20;;
42770;SDS011;28426;42.872;25.314;2022-10-20T11:42:51;12.50;;;5.63;;
42770;SDS011;28426;42.872;25.314;2022-10-20T11:45:41;11.00;;;5.65;;
42770;SDS011;28426;42.872;25.314;2022-10-20T11:48:19;14.15;;;5.50;;
42770;SDS011;28426;42.872;25.314;2022-10-20T11:50:57;9.77;;;4.97;;
42770;SDS011;28426;42.872;25.314;2022-10-20T11:56:52;15.68;;;5.88;;
42770;SDS011;28426;42.872;25.314;2022-10-20T12:05:48;8.57;;;5.22;;
42770;SDS011;28426;42.872;25.314;2022-10-20T12:11:47;13.80;;;5.30;;
42770;SDS011;28426;42.872;25.314;2022-10-20T12:14:24;8.38;;;5.10;;
42770;SDS011;28426;42.872;25.314;2022-10-20T12:17:03;10.30;;;5.40;;
42770;SDS011;28426;42.872;25.314;2022-10-20T12:19:43;10.00;;;5.28;;
42770;SDS011;28426;42.872;25.314;2022-10-20T12:25:21;7.75;;;4.70;;
42770;SDS011;28426;42.872;25.314;2022-10-20T12:31:02;8.45;;;5.38;;
42770;SDS011;28426;42.872;25.314;2022-10-20T12:33:35;7.57;;;4.93;;
42770;SDS011;28426;42.872;25.314;2022-10-20T12:39:07;7.90;;;4.78;;
42770;SDS011;28426;42.872;25.314;2022-10-20T12:41:56;8.70;;;4.60;;
42770;SDS011;28426;42.872;25.314;2022-10-20T12:44:30;8.77;;;5.00;;
42770;SDS011;28426;42.872;25.314;2022-10-20T12:47:13;6.85;;;5.20;;
42770;SDS011;28426;42.872;25.314;2022-10-20T12:49:51;7.80;;;4.90;;
42770;SDS011;28426;42.872;25.314;2022-10-20T12:52:28;8.52;;;5.45;;
42770;SDS011;28426;42.872;25.314;2022-10-20T12:55:03;10.35;;;5.10;;
42770;SDS011;28426;42.872;25.314;2022-10-20T12:57:36;9.32;;;5.32;;
42770;SDS011;28426;42.872;25.314;2022-10-20T13:09:20;13.48;;;5.45;;
42770;SDS011;28426;42.872;25.314;2022-10-20T13:11:56;9.43;;;5.93;;
42770;SDS011;28426;42.872;25.314;2022-10-20T13:14:40;9.38;;;5.55;;
42770;SDS011;28426;42.872;25.314;2022-10-20T13:17:34;10.98;;;5.65;;
42770;SDS011;28426;42.872;25.314;2022-10-20T13:20:19;7.25;;;4.70;;
42770;SDS011;28426;42.872;25.314;2022-10-20T13:22:56;8.65;;;4.95;;
42770;SDS011;28426;42.872;25.314;2022-10-20T13:25:39;10.65;;;4.72;;
42770;SDS011;28426;42.872;25.314;2022-10-20T13:28:18;10.43;;;4.53;;
42770;SDS011;28426;42.872;25.314;2022-10-20T13:31:05;9.15;;;5.25;;
42770;SDS011;28426;42.872;25.314;2022-10-20T13:33:45;7.18;;;5.10;;
42770;SDS011;28426;42.872;25.314;2022-10-20T13:36:36;8.27;;;5.07;;
42770;SDS011;28426;42.872;25.314;2022-10-20T13:39:16;8.02;;;5.57;;
42770;SDS011;28426;42.872;25.314;2022-10-20T13:41:58;7.47;;;4.82;;
42770;SDS011;28426;42.872;25.314;2022-10-20T13:44:42;7.90;;;4.65;;
42770;SDS011;28426;42.872;25.314;2022-10-20T13:50:26;11.43;;;4.82;;
42770;SDS011;28426;42.872;25.314;2022-10-20T13:53:02;9.00;;;5.18;;
42770;SDS011;28426;42.872;25.314;2022-10-20T13:55:53;11.15;;;5.43;;
42770;SDS011;28426;42.872;25.314;2022-10-20T13:58:29;7.65;;;5.18;;
42770;SDS011;28426;42.872;25.314;2022-10-20T14:01:00;18.73;;;6.40;;
42770;SDS011;28426;42.872;25.314;2022-10-20T14:03:39;11.18;;;5.93;;
42770;SDS011;28426;42.872;25.314;2022-10-20T14:06:27;10.68;;;5.22;;
42770;SDS011;28426;42.872;25.314;2022-10-20T14:09:08;14.98;;;5.50;;
42770;SDS011;28426;42.872;25.314;2022-10-20T14:11:41;9.15;;;5.40;;
42770;SDS011;28426;42.872;25.314;2022-10-20T14:14:17;10.48;;;5.70;;
42770;SDS011;28426;42.872;25.314;2022-10-20T14:16:52;7.78;;;5.18;;
42770;SDS011;28426;42.872;25.314;2022-10-20T14:19:26;11.23;;;5.50;;
42770;SDS011;28426;42.872;25.314;2022-10-20T14:22:08;18.05;;;6.88;;
42770;SDS011;28426;42.872;25.314;2022-10-20T14:24:42;10.77;;;6.90;;
42770;SDS011;28426;42.872;25.314;2022-10-20T14:27:14;10.23;;;5.53;;
42770;SDS011;28426;42.872;25.314;2022-10-20T14:29:50;8.55;;;5.35;;
42770;SDS011;28426;42.872;25.314;2022-10-20T14:32:22;10.25;;;5.85;;
42770;SDS011;28426;42.872;25.314;2022-10-20T14:34:54;12.68;;;5.60;;
42770;SDS011;28426;42.872;25.314;2022-10-20T14:37:28;10.52;;;5.43;;
42770;SDS011;28426;42.872;25.314;2022-10-20T14:40:01;12.90;;;5.60;;
42770;SDS011;28426;42.872;25.314;2022-10-20T14:45:15;11.63;;;5.40;;
42770;SDS011;28426;42.872;25.314;2022-10-20T14:47:49;12.02;;;7.13;;
42770;SDS011;28426;42.872;25.314;2022-10-20T14:50:22;9.35;;;5.00;;
42770;SDS011;28426;42.872;25.314;2022-10-20T14:52:54;12.23;;;5.28;;
42770;SDS011;28426;42.872;25.314;2022-10-20T14:55:34;11.48;;;5.50;;
42770;SDS011;28426;42.872;25.314;2022-10-20T14:58:20;11.63;;;5.95;;
42770;SDS011;28426;42.872;25.314;2022-10-20T15:04:02;9.98;;;5.47;;
42770;SDS011;28426;42.872;25.314;2022-10-20T15:07:05;27.48;;;7.68;;
42770;SDS011;28426;42.872;25.314;2022-10-20T15:09:41;18.83;;;6.57;;
42770;SDS011;28426;42.872;25.314;2022-10-20T15:12:14;28.15;;;7.88;;
42770;SDS011;28426;42.872;25.314;2022-10-20T15:14:47;20.30;;;6.78;;
42770;SDS011;28426;42.872;25.314;2022-10-20T15:17:37;10.70;;;5.93;;
42770;SDS011;28426;42.872;25.314;2022-10-20T15:23:08;14.35;;;6.82;;
42770;SDS011;28426;42.872;25.314;2022-10-20T15:25:41;16.63;;;6.97;;
42770;SDS011;28426;42.872;25.314;2022-10-20T15:28:29;13.57;;;6.20;;
42770;SDS011;28426;42.872;25.314;2022-10-20T15:31:04;9.30;;;6.10;;
42770;SDS011;28426;42.872;25.314;2022-10-20T15:33:39;16.58;;;6.05;;
42770;SDS011;28426;42.872;25.314;2022-10-20T15:36:10;15.38;;;6.53;;
42770;SDS011;28426;42.872;25.314;2022-10-20T15:38:46;24.27;;;14.82;;
42770;SDS011;28426;42.872;25.314;2022-10-20T15:41:18;18.48;;;7.78;;
42770;SDS011;28426;42.872;25.314;2022-10-20T15:43:51;18.25;;;6.57;;
42770;SDS011;28426;42.872;25.314;2022-10-20T15:46:22;20.23;;;8.73;;
42770;SDS011;28426;42.872;25.314;2022-10-20T15:48:55;25.83;;;7.05;;